Time;durP1;ratioP1;P1;durP2;ratioP2;P2;SDS_P1;SDS_P2;PMS_P1;PMS_P2;Temp;Humidity;BMP_temperature;BMP_pressure;BME280_temperature;BME280_humidity;BME280_pressure;Samples;Min_cycle;Max_cycle;Signal;HPM_P1;HPM_P2
2021/03/05 00:01:01;;;;;;;9.45;2.35;;;;;;;;;;5024080;28;20175;-57
2021/03/05 00:03:27;;;;;;;14.60;2.90;;;;;;;;;;5033151;28;20038;-56
2021/03/05 00:05:53;;;;;;;6.80;2.42;;;;;;;;;;5023504;28;20048;-57
2021/03/05 00:08:19;;;;;;;13.30;3.30;;;;;;;;;;5021944;28;20041;-57
2021/03/05 00:10:45;;;;;;;8.20;2.67;;;;;;;;;;5024460;28;20049;-57
2021/03/05 00:13:12;;;;;;;9.02;2.67;;;;;;;;;;5022656;28;20029;-57
2021/03/05 00:15:39;;;;;;;11.93;3.28;;;;;;;;;;5023095;28;20179;-57
2021/03/05 00:18:05;;;;;;;7.78;2.63;;;;;;;;;;5029996;28;20041;-57
2021/03/05 00:20:32;;;;;;;8.13;2.30;;;;;;;;;;5021699;28;20040;-57
2021/03/05 00:22:59;;;;;;;9.93;2.35;;;;;;;;;;5016688;28;20038;-57
2021/03/05 00:25:25;;;;;;;13.75;2.40;;;;;;;;;;5022222;28;20041;-58
2021/03/05 00:27:51;;;;;;;8.93;2.60;;;;;;;;;;5021606;28;20048;-58
2021/03/05 00:30:17;;;;;;;7.78;2.40;;;;;;;;;;5021563;28;20041;-58
2021/03/05 00:32:44;;;;;;;13.52;2.95;;;;;;;;;;5020598;28;20060;-58
2021/03/05 00:35:10;;;;;;;12.80;2.75;;;;;;;;;;5027041;28;20123;-57
2021/03/05 00:37:37;;;;;;;9.00;3.00;;;;;;;;;;5030219;28;20048;-56
2021/03/05 00:40:04;;;;;;;10.95;2.80;;;;;;;;;;5029171;28;20508;-58
2021/03/05 00:42:30;;;;;;;10.95;3.40;;;;;;;;;;5024653;28;20101;-57
2021/03/05 00:44:56;;;;;;;13.35;3.28;;;;;;;;;;5029245;28;20041;-58
2021/03/05 00:47:21;;;;;;;7.93;2.78;;;;;;;;;;5033608;28;20049;-56
2021/03/05 00:49:47;;;;;;;9.45;3.25;;;;;;;;;;5031393;28;20604;-57
2021/03/05 00:52:13;;;;;;;14.73;3.10;;;;;;;;;;5032619;28;20565;-57
2021/03/05 00:54:39;;;;;;;13.25;3.63;;;;;;;;;;5027164;28;20052;-57
2021/03/05 00:57:05;;;;;;;9.25;2.80;;;;;;;;;;5024288;28;20045;-58
2021/03/05 00:59:31;;;;;;;8.20;2.60;;;;;;;;;;5023231;28;20769;-55
2021/03/05 01:01:57;;;;;;;8.57;2.72;;;;;;;;;;5017683;28;20073;-58
2021/03/05 01:04:22;;;;;;;8.43;3.13;;;;;;;;;;5023764;28;20033;-57
2021/03/05 01:06:48;;;;;;;15.23;3.50;;;;;;;;;;5024210;28;20040;-57
2021/03/05 01:09:14;;;;;;;15.30;3.97;;;;;;;;;;5023114;28;20045;-56
2021/03/05 01:11:40;;;;;;;16.73;3.75;;;;;;;;;;5022286;28;20333;-57
2021/03/05 01:14:06;;;;;;;16.17;3.95;;;;;;;;;;5023522;28;20060;-57
2021/03/05 01:16:32;;;;;;;9.48;4.00;;;;;;;;;;5023744;28;20073;-56
2021/03/05 01:18:58;;;;;;;16.40;4.00;;;;;;;;;;5025558;28;20132;-54
2021/03/05 01:21:24;;;;;;;11.93;3.70;;;;;;;;;;5030381;28;20044;-57
2021/03/05 01:23:50;;;;;;;13.70;3.63;;;;;;;;;;5031941;28;20048;-57
2021/03/05 01:26:16;;;;;;;17.85;4.18;;;;;;;;;;5030571;28;20068;-57
2021/03/05 01:28:45;;;;;;;20.65;4.50;;;;;;;;;;5032198;28;20187;-57
2021/03/05 01:31:12;;;;;;;22.50;4.50;;;;;;;;;;5033001;28;20462;-57
2021/03/05 01:33:38;;;;;;;19.50;4.53;;;;;;;;;;5029936;28;20056;-57
2021/03/05 01:36:04;;;;;;;17.63;6.13;;;;;;;;;;5031138;28;20433;-57
2021/03/05 01:38:29;;;;;;;22.40;8.07;;;;;;;;;;5034004;28;20036;-57
2021/03/05 01:40:55;;;;;;;23.58;8.63;;;;;;;;;;5031456;28;20041;-57
2021/03/05 01:43:21;;;;;;;19.83;8.65;;;;;;;;;;5031677;28;20033;-54
2021/03/05 01:45:47;;;;;;;21.02;7.95;;;;;;;;;;5028463;28;20136;-56
2021/03/05 01:48:14;;;;;;;21.20;6.72;;;;;;;;;;5033445;28;20049;-57
2021/03/05 01:50:43;;;;;;;24.75;6.50;;;;;;;;;;5031416;28;20037;-58
2021/03/05 01:53:09;;;;;;;13.40;6.20;;;;;;;;;;5032088;28;20047;-57
2021/03/05 01:55:35;;;;;;;23.73;5.47;;;;;;;;;;5031684;28;20045;-57
2021/03/05 01:58:02;;;;;;;23.25;5.68;;;;;;;;;;5029869;28;20140;-55
2021/03/05 02:00:31;;;;;;;18.35;6.22;;;;;;;;;;5023985;28;20057;-57
2021/03/05 02:02:57;;;;;;;13.35;5.13;;;;;;;;;;5033691;28;20036;-57
2021/03/05 02:05:23;;;;;;;20.35;6.30;;;;;;;;;;5033872;28;20037;-57
2021/03/05 02:07:49;;;;;;;27.48;7.35;;;;;;;;;;5028433;28;20138;-57
2021/03/05 02:10:15;;;;;;;25.50;6.72;;;;;;;;;;5032766;28;20049;-57
2021/03/05 02:12:41;;;;;;;21.08;8.02;;;;;;;;;;5033832;28;20120;-57
2021/03/05 02:15:07;;;;;;;18.90;6.75;;;;;;;;;;5033371;28;20053;-55
2021/03/05 02:17:56;;;;;;;17.83;6.75;;;;;;;;;;5031994;28;20052;-57
2021/03/05 02:20:28;;;;;;;15.38;5.57;;;;;;;;;;5032696;28;20057;-56
2021/03/05 02:23:14;;;;;;;17.13;5.05;;;;;;;;;;5037004;28;20075;-54
2021/03/05 02:26:09;;;;;;;18.85;5.30;;;;;;;;;;5025907;28;20045;-56
2021/03/05 02:28:53;;;;;;;16.38;4.70;;;;;;;;;;4994676;28;20211;-55
2021/03/05 02:31:19;;;;;;;18.23;5.10;;;;;;;;;;5032659;28;20048;-56
2021/03/05 02:34:01;;;;;;;16.48;5.45;;;;;;;;;;5035398;28;20053;-58
2021/03/05 02:36:47;;;;;;;18.70;5.45;;;;;;;;;;5035622;28;20033;-57
2021/03/05 02:39:25;;;;;;;16.52;5.63;;;;;;;;;;5033906;28;20132;-59
2021/03/05 02:41:55;;;;;;;12.93;5.78;;;;;;;;;;5031255;28;20050;-57
2021/03/05 02:44:25;;;;;;;12.23;5.97;;;;;;;;;;5030308;28;20063;-57
2021/03/05 02:46:52;;;;;;;19.33;5.47;;;;;;;;;;5032561;28;20029;-57
2021/03/05 02:49:20;;;;;;;15.10;5.50;;;;;;;;;;5031252;28;20062;-58
2021/03/05 02:51:47;;;;;;;15.80;5.70;;;;;;;;;;5033703;28;20033;-59
2021/03/05 02:54:13;;;;;;;12.80;5.22;;;;;;;;;;5036249;28;20056;-56
2021/03/05 02:56:40;;;;;;;16.67;5.18;;;;;;;;;;5034518;28;20128;-57
2021/03/05 02:59:07;;;;;;;13.43;5.30;;;;;;;;;;5032825;28;20056;-55
2021/03/05 03:01:34;;;;;;;15.32;5.40;;;;;;;;;;5033437;28;20021;-54
2021/03/05 03:04:02;;;;;;;15.77;5.65;;;;;;;;;;5034491;28;20114;-56
2021/03/05 03:06:29;;;;;;;17.02;5.72;;;;;;;;;;5033162;28;20503;-56
2021/03/05 03:08:57;;;;;;;17.23;5.55;;;;;;;;;;5033971;28;20445;-56
2021/03/05 03:11:23;;;;;;;20.65;5.70;;;;;;;;;;5021415;28;20111;-56
2021/03/05 03:13:49;;;;;;;22.10;7.32;;;;;;;;;;5045171;28;20183;-57
2021/03/05 03:16:16;;;;;;;18.90;5.45;;;;;;;;;;5031658;28;20037;-56
2021/03/05 03:18:43;;;;;;;18.05;5.97;;;;;;;;;;5033454;28;20116;-56
2021/03/05 03:21:09;;;;;;;12.93;5.18;;;;;;;;;;5032140;28;20229;-55
2021/03/05 03:23:35;;;;;;;19.27;5.43;;;;;;;;;;5031077;28;20461;-57
2021/03/05 03:26:01;;;;;;;21.52;6.13;;;;;;;;;;5031350;28;20056;-57
2021/03/05 03:28:27;;;;;;;13.13;5.05;;;;;;;;;;5030148;28;20037;-55
2021/03/05 03:30:53;;;;;;;20.45;6.70;;;;;;;;;;5031056;28;20041;-57
2021/03/05 03:33:19;;;;;;;15.35;5.78;;;;;;;;;;5030046;28;20045;-57
2021/03/05 03:35:46;;;;;;;14.90;5.85;;;;;;;;;;5032418;28;20041;-56
2021/03/05 03:38:12;;;;;;;12.95;5.65;;;;;;;;;;5030704;28;20048;-56
2021/03/05 03:40:38;;;;;;;16.23;5.32;;;;;;;;;;5027983;28;20762;-55
2021/03/05 03:43:06;;;;;;;15.95;5.80;;;;;;;;;;5032991;28;20137;-57
2021/03/05 03:45:33;;;;;;;17.10;6.68;;;;;;;;;;5030325;28;20049;-57
2021/03/05 03:48:00;;;;;;;16.98;6.28;;;;;;;;;;5025295;28;20044;-56
2021/03/05 03:50:31;;;;;;;16.30;6.22;;;;;;;;;;5030787;28;20081;-57
2021/03/05 03:52:59;;;;;;;14.80;6.30;;;;;;;;;;5039182;28;20044;-56
2021/03/05 03:55:25;;;;;;;16.80;6.15;;;;;;;;;;5036812;28;20048;-58
2021/03/05 03:57:55;;;;;;;16.65;6.25;;;;;;;;;;5038109;28;20063;-57
2021/03/05 04:00:21;;;;;;;14.90;5.95;;;;;;;;;;5032782;28;20033;-57
2021/03/05 04:02:49;;;;;;;18.48;5.80;;;;;;;;;;5036353;28;20499;-57
2021/03/05 04:05:17;;;;;;;16.23;6.07;;;;;;;;;;5049782;28;20064;-57
2021/03/05 04:07:44;;;;;;;16.80;6.20;;;;;;;;;;5037745;28;20048;-57
2021/03/05 04:10:10;;;;;;;22.13;6.60;;;;;;;;;;5036593;28;20198;-57
2021/03/05 04:12:37;;;;;;;27.02;7.43;;;;;;;;;;5029065;28;20041;-57
2021/03/05 04:15:03;;;;;;;21.88;6.78;;;;;;;;;;5032955;28;20520;-58
2021/03/05 04:17:29;;;;;;;21.80;6.55;;;;;;;;;;5032971;28;20041;-57
2021/03/05 04:19:56;;;;;;;14.75;6.60;;;;;;;;;;5033765;28;20052;-57
2021/03/05 04:22:22;;;;;;;17.70;5.95;;;;;;;;;;5034188;28;20769;-57
2021/03/05 04:24:48;;;;;;;23.52;6.45;;;;;;;;;;5031553;28;20052;-58
2021/03/05 04:27:14;;;;;;;23.40;6.40;;;;;;;;;;5030884;28;20565;-57
2021/03/05 04:29:40;;;;;;;17.25;6.38;;;;;;;;;;5030215;28;20037;-57
2021/03/05 04:32:06;;;;;;;18.92;6.68;;;;;;;;;;5031647;28;20106;-58
2021/03/05 04:34:33;;;;;;;14.75;6.40;;;;;;;;;;5028974;28;20448;-55
2021/03/05 04:36:59;;;;;;;16.45;5.88;;;;;;;;;;5030229;28;20045;-57
2021/03/05 04:39:25;;;;;;;17.75;6.30;;;;;;;;;;5029820;28;20039;-56
2021/03/05 04:41:51;;;;;;;19.15;7.53;;;;;;;;;;5031209;28;20126;-56
2021/03/05 04:44:17;;;;;;;15.13;7.00;;;;;;;;;;5031497;28;20037;-57
2021/03/05 04:46:43;;;;;;;12.10;6.20;;;;;;;;;;5028579;28;20267;-56
2021/03/05 04:49:09;;;;;;;14.02;6.10;;;;;;;;;;5028678;28;20557;-57
2021/03/05 04:51:35;;;;;;;14.30;6.28;;;;;;;;;;5031018;28;20048;-58
2021/03/05 04:54:01;;;;;;;12.75;6.13;;;;;;;;;;5028319;28;20084;-57
2021/03/05 04:56:27;;;;;;;11.82;6.00;;;;;;;;;;5026292;28;20032;-58
2021/03/05 04:58:53;;;;;;;15.90;6.55;;;;;;;;;;5026961;28;20421;-58
2021/03/05 05:01:18;;;;;;;13.88;6.38;;;;;;;;;;5027403;28;20048;-58
2021/03/05 05:03:44;;;;;;;14.70;6.43;;;;;;;;;;5026213;28;20406;-58
2021/03/05 05:06:11;;;;;;;14.70;6.38;;;;;;;;;;5028157;28;20041;-57
2021/03/05 05:08:37;;;;;;;14.57;6.80;;;;;;;;;;5027562;28;20109;-57
2021/03/05 05:11:03;;;;;;;13.98;6.07;;;;;;;;;;5027972;28;20117;-54
2021/03/05 05:13:29;;;;;;;15.85;6.65;;;;;;;;;;5026740;28;20034;-55
2021/03/05 05:15:55;;;;;;;15.23;6.47;;;;;;;;;;5028561;28;20072;-54
2021/03/05 05:18:21;;;;;;;13.45;6.30;;;;;;;;;;5027925;28;20039;-56
2021/03/05 05:20:47;;;;;;;22.98;6.35;;;;;;;;;;5026709;28;20532;-55
2021/03/05 05:23:13;;;;;;;14.85;5.50;;;;;;;;;;5028227;28;21951;-56
2021/03/05 05:25:39;;;;;;;12.73;6.70;;;;;;;;;;5028401;28;20071;-52
2021/03/05 05:28:05;;;;;;;22.02;7.93;;;;;;;;;;5028425;28;20152;-56
2021/03/05 05:30:30;;;;;;;18.52;7.53;;;;;;;;;;5027653;28;21605;-57
2021/03/05 05:32:56;;;;;;;17.35;7.18;;;;;;;;;;5027361;28;20037;-56
2021/03/05 05:35:22;;;;;;;16.42;6.85;;;;;;;;;;5029379;28;20869;-54
2021/03/05 05:37:48;;;;;;;17.40;7.20;;;;;;;;;;5031020;28;20140;-53
2021/03/05 05:40:14;;;;;;;19.33;7.40;;;;;;;;;;5031163;28;20092;-55
2021/03/05 05:42:40;;;;;;;18.95;7.03;;;;;;;;;;5032146;28;21704;-57
2021/03/05 05:45:06;;;;;;;16.65;7.13;;;;;;;;;;5032750;28;20041;-56
2021/03/05 05:47:35;;;;;;;14.88;6.68;;;;;;;;;;5031526;28;20052;-57
2021/03/05 05:50:03;;;;;;;18.55;8.65;;;;;;;;;;5030409;28;20075;-56
2021/03/05 05:52:30;;;;;;;20.42;7.75;;;;;;;;;;5030675;28;21867;-55
2021/03/05 05:54:56;;;;;;;16.73;7.35;;;;;;;;;;5033444;28;20053;-54
2021/03/05 05:57:23;;;;;;;28.15;7.97;;;;;;;;;;5028748;28;20037;-56
2021/03/05 05:59:49;;;;;;;19.35;7.90;;;;;;;;;;5030734;28;20040;-56
2021/03/05 06:02:15;;;;;;;26.33;9.23;;;;;;;;;;5033324;28;20049;-56
2021/03/05 06:04:41;;;;;;;19.33;8.15;;;;;;;;;;5031284;28;20040;-57
2021/03/05 06:07:07;;;;;;;16.67;8.05;;;;;;;;;;5031814;28;20076;-57
2021/03/05 06:09:33;;;;;;;18.48;7.72;;;;;;;;;;5031539;28;20140;-57
2021/03/05 06:11:59;;;;;;;19.92;7.75;;;;;;;;;;5031740;28;20377;-57
2021/03/05 06:14:25;;;;;;;23.50;8.38;;;;;;;;;;5031320;28;20556;-56
2021/03/05 06:16:54;;;;;;;21.98;8.30;;;;;;;;;;5033836;28;20037;-56
2021/03/05 06:19:21;;;;;;;15.68;6.88;;;;;;;;;;5027902;28;20098;-57
2021/03/05 06:21:47;;;;;;;15.70;7.47;;;;;;;;;;5030985;28;20204;-54
2021/03/05 06:24:13;;;;;;;17.60;6.95;;;;;;;;;;5027735;28;20041;-56
2021/03/05 06:26:56;;;;;;;19.50;6.93;;;;;;;;;;5030245;28;20609;-54
2021/03/05 06:29:25;;;;;;;18.90;7.28;;;;;;;;;;5032051;28;20128;-57
2021/03/05 06:31:59;;;;;;;21.10;7.40;;;;;;;;;;5033187;28;20063;-56
2021/03/05 06:34:25;;;;;;;19.85;6.85;;;;;;;;;;5032233;28;20037;-55
2021/03/05 06:36:57;;;;;;;22.30;6.93;;;;;;;;;;5031139;28;20358;-56
2021/03/05 06:39:26;;;;;;;16.55;6.47;;;;;;;;;;5030489;28;20128;-56
2021/03/05 06:42:06;;;;;;;17.63;6.75;;;;;;;;;;5031521;28;20104;-53
2021/03/05 06:44:32;;;;;;;14.27;5.65;;;;;;;;;;5034084;28;20044;-56
2021/03/05 06:47:06;;;;;;;15.95;5.40;;;;;;;;;;5032305;28;20037;-56
2021/03/05 06:49:32;;;;;;;17.95;5.80;;;;;;;;;;5033382;28;20091;-56
2021/03/05 06:51:58;;;;;;;13.50;5.65;;;;;;;;;;5032488;28;20120;-54
2021/03/05 06:54:31;;;;;;;14.70;5.32;;;;;;;;;;5030389;28;20131;-55
2021/03/05 06:56:57;;;;;;;17.58;4.88;;;;;;;;;;5031058;28;20231;-54
2021/03/05 06:59:24;;;;;;;11.20;4.97;;;;;;;;;;5030677;28;20042;-53
2021/03/05 07:02:00;;;;;;;10.30;4.95;;;;;;;;;;5030965;28;20038;-55
2021/03/05 07:04:26;;;;;;;13.30;4.00;;;;;;;;;;5029348;28;20036;-55
2021/03/05 07:06:56;;;;;;;9.40;4.35;;;;;;;;;;5030130;28;20037;-53
2021/03/05 07:09:29;;;;;;;16.20;4.32;;;;;;;;;;5030677;28;20041;-56
2021/03/05 07:11:55;;;;;;;8.83;3.77;;;;;;;;;;5031206;28;20052;-53
2021/03/05 07:14:33;;;;;;;11.02;3.60;;;;;;;;;;5021813;28;20056;-56
2021/03/05 07:17:00;;;;;;;8.63;3.75;;;;;;;;;;5033180;28;20037;-58
2021/03/05 07:19:27;;;;;;;10.30;3.60;;;;;;;;;;5033276;28;20037;-56
2021/03/05 07:21:53;;;;;;;11.20;3.47;;;;;;;;;;5034109;28;20048;-56
2021/03/05 07:24:20;;;;;;;9.10;3.78;;;;;;;;;;5033547;28;20072;-56
2021/03/05 07:26:53;;;;;;;10.23;3.40;;;;;;;;;;5033900;28;20425;-56
2021/03/05 07:29:20;;;;;;;12.68;3.70;;;;;;;;;;5035147;28;20460;-56
2021/03/05 07:31:47;;;;;;;10.75;3.60;;;;;;;;;;5035422;28;20084;-55
2021/03/05 07:34:17;;;;;;;7.68;3.42;;;;;;;;;;5034938;28;20059;-56
2021/03/05 07:36:45;;;;;;;10.80;3.33;;;;;;;;;;5027708;28;20043;-55
2021/03/05 07:39:12;;;;;;;8.45;3.25;;;;;;;;;;5032551;28;20044;-54
2021/03/05 07:41:38;;;;;;;9.48;3.90;;;;;;;;;;5033308;28;20767;-55
2021/03/05 07:44:05;;;;;;;12.35;3.22;;;;;;;;;;5032454;28;20037;-55
2021/03/05 07:46:30;;;;;;;6.20;3.25;;;;;;;;;;5033061;28;20103;-53
2021/03/05 07:48:57;;;;;;;7.22;2.90;;;;;;;;;;5033888;28;20577;-52
2021/03/05 07:51:23;;;;;;;7.75;2.83;;;;;;;;;;5034575;28;20108;-55
2021/03/05 07:53:50;;;;;;;10.65;2.90;;;;;;;;;;5035790;28;20056;-56
2021/03/05 07:56:34;;;;;;;8.90;3.47;;;;;;;;;;5035693;28;20095;-56
2021/03/05 07:59:00;;;;;;;8.68;2.90;;;;;;;;;;5032480;28;20040;-54
2021/03/05 08:01:56;;;;;;;6.78;3.33;;;;;;;;;;5033672;28;20664;-56
2021/03/05 08:04:21;;;;;;;5.82;2.65;;;;;;;;;;5022817;28;20139;-56
2021/03/05 08:07:07;;;;;;;12.63;3.30;;;;;;;;;;5034580;28;20112;-56
2021/03/05 08:09:37;;;;;;;6.95;2.50;;;;;;;;;;5032555;28;20036;-56
2021/03/05 08:12:21;;;;;;;8.45;2.25;;;;;;;;;;5033198;28;20041;-56
2021/03/05 08:14:47;;;;;;;6.13;2.60;;;;;;;;;;5032116;28;20056;-56
2021/03/05 08:17:30;;;;;;;7.40;2.33;;;;;;;;;;5032331;28;20453;-54
2021/03/05 08:19:56;;;;;;;5.65;2.38;;;;;;;;;;5032667;28;20049;-55
2021/03/05 08:22:22;;;;;;;5.22;1.90;;;;;;;;;;5030779;28;20485;-55
2021/03/05 08:24:48;;;;;;;11.77;2.58;;;;;;;;;;5032886;28;20055;-55
2021/03/05 08:27:15;;;;;;;6.65;2.40;;;;;;;;;;5033628;28;20433;-52
2021/03/05 08:29:50;;;;;;;9.55;3.63;;;;;;;;;;5032917;28;20480;-55
2021/03/05 08:32:32;;;;;;;10.23;2.50;;;;;;;;;;5032794;28;20078;-54
2021/03/05 08:35:05;;;;;;;8.27;2.40;;;;;;;;;;5033089;28;20510;-55
2021/03/05 08:37:35;;;;;;;7.70;2.60;;;;;;;;;;5032361;28;20118;-55
2021/03/05 08:40:10;;;;;;;7.78;2.60;;;;;;;;;;5032613;28;20708;-55
2021/03/05 08:42:41;;;;;;;6.03;2.35;;;;;;;;;;5027514;28;20058;-55
2021/03/05 08:45:11;;;;;;;6.60;2.45;;;;;;;;;;5033558;28;20041;-55
2021/03/05 08:47:37;;;;;;;9.73;2.78;;;;;;;;;;5034502;28;20049;-55
2021/03/05 08:50:04;;;;;;;8.88;2.28;;;;;;;;;;5032441;28;20052;-55
2021/03/05 08:52:30;;;;;;;6.28;2.80;;;;;;;;;;5031327;28;20485;-55
2021/03/05 08:54:56;;;;;;;6.25;2.63;;;;;;;;;;5031636;28;20076;-55
2021/03/05 08:57:22;;;;;;;7.57;2.72;;;;;;;;;;5032353;28;20033;-54
2021/03/05 08:59:51;;;;;;;8.35;3.00;;;;;;;;;;5031231;28;20066;-55
2021/03/05 09:02:17;;;;;;;5.40;2.50;;;;;;;;;;5031758;28;20692;-53
2021/03/05 09:04:43;;;;;;;6.65;2.65;;;;;;;;;;5032009;28;20048;-55
2021/03/05 09:07:15;;;;;;;9.88;3.13;;;;;;;;;;5033197;28;20124;-55
2021/03/05 09:09:49;;;;;;;6.95;2.60;;;;;;;;;;5032385;28;20387;-56
2021/03/05 09:12:16;;;;;;;10.18;3.30;;;;;;;;;;5032255;28;20040;-55
2021/03/05 09:14:57;;;;;;;8.70;2.85;;;;;;;;;;5036981;28;20049;-56
2021/03/05 09:17:23;;;;;;;7.95;3.25;;;;;;;;;;5029540;28;20084;-58
2021/03/05 09:19:48;;;;;;;9.65;3.10;;;;;;;;;;5028837;28;20128;-60
2021/03/05 09:22:15;;;;;;;14.73;3.25;;;;;;;;;;5029893;28;20049;-58
2021/03/05 09:25:01;;;;;;;6.43;2.60;;;;;;;;;;5028975;28;20037;-58
2021/03/05 09:27:27;;;;;;;7.50;2.83;;;;;;;;;;5028149;28;20098;-58
2021/03/05 09:29:53;;;;;;;6.82;3.10;;;;;;;;;;5028584;28;20037;-59
2021/03/05 09:32:20;;;;;;;6.75;2.53;;;;;;;;;;5028603;28;20048;-59
2021/03/05 09:34:50;;;;;;;13.10;3.17;;;;;;;;;;5028603;28;20489;-59
2021/03/05 09:37:17;;;;;;;7.95;2.97;;;;;;;;;;5030361;28;20187;-59
2021/03/05 09:39:44;;;;;;;7.80;2.80;;;;;;;;;;5026772;28;20033;-60
2021/03/05 09:42:10;;;;;;;8.75;2.83;;;;;;;;;;5029044;28;20120;-59
2021/03/05 09:44:46;;;;;;;8.43;3.22;;;;;;;;;;5030796;28;20506;-60
2021/03/05 09:47:12;;;;;;;7.97;3.08;;;;;;;;;;5029267;28;20466;-58
2021/03/05 09:49:38;;;;;;;12.50;3.28;;;;;;;;;;5027021;28;20376;-59
2021/03/05 09:52:04;;;;;;;6.43;2.90;;;;;;;;;;5028031;28;20044;-59
2021/03/05 09:54:37;;;;;;;7.60;3.85;;;;;;;;;;5029292;28;20045;-59
2021/03/05 09:57:03;;;;;;;7.97;3.40;;;;;;;;;;5028553;28;20213;-59
2021/03/05 09:59:51;;;;;;;9.90;3.60;;;;;;;;;;5027194;28;20448;-58
2021/03/05 10:02:20;;;;;;;11.25;3.25;;;;;;;;;;5029526;28;20571;-59
2021/03/05 10:04:47;;;;;;;7.63;3.53;;;;;;;;;;5028859;28;20049;-59
2021/03/05 10:07:13;;;;;;;9.98;3.65;;;;;;;;;;5028966;28;20052;-59
2021/03/05 10:09:39;;;;;;;9.70;3.38;;;;;;;;;;5028721;28;20449;-59
2021/03/05 10:12:05;;;;;;;11.93;3.40;;;;;;;;;;5029704;28;20052;-59
2021/03/05 10:14:35;;;;;;;7.15;3.20;;;;;;;;;;5027844;28;20056;-58
2021/03/05 10:17:08;;;;;;;12.20;3.53;;;;;;;;;;5031102;28;20102;-60
2021/03/05 10:19:36;;;;;;;8.93;3.13;;;;;;;;;;5030335;28;20179;-60
2021/03/05 10:22:02;;;;;;;6.95;3.47;;;;;;;;;;5034162;28;20052;-62
2021/03/05 10:24:28;;;;;;;8.52;3.20;;;;;;;;;;5032098;28;20037;-58
2021/03/05 10:29:44;;;;;;;7.13;3.58;;;;;;;;;;5031756;28;20075;-60
2021/03/05 10:32:19;;;;;;;8.65;3.30;;;;;;;;;;5034226;28;20603;-59
2021/03/05 10:34:46;;;;;;;9.13;3.40;;;;;;;;;;5034250;28;20439;-59
2021/03/05 10:37:12;;;;;;;7.63;3.80;;;;;;;;;;5030071;28;20052;-60
2021/03/05 10:39:39;;;;;;;7.95;3.47;;;;;;;;;;5031402;28;20525;-60
2021/03/05 10:42:05;;;;;;;9.63;3.42;;;;;;;;;;5033347;28;20556;-60
2021/03/05 10:44:32;;;;;;;10.25;2.97;;;;;;;;;;5032282;28;20406;-59
2021/03/05 10:46:58;;;;;;;8.82;3.60;;;;;;;;;;5032666;28;20037;-60
2021/03/05 10:49:25;;;;;;;7.75;3.30;;;;;;;;;;5031544;28;20429;-59
2021/03/05 10:51:51;;;;;;;8.98;3.45;;;;;;;;;;5031791;28;20498;-59
2021/03/05 10:54:16;;;;;;;11.45;3.55;;;;;;;;;;5032569;28;20132;-60
2021/03/05 10:56:42;;;;;;;9.02;3.15;;;;;;;;;;5033117;28;20053;-60
2021/03/05 10:59:11;;;;;;;8.93;3.38;;;;;;;;;;5034007;28;20060;-60
2021/03/05 11:01:37;;;;;;;6.68;2.97;;;;;;;;;;5032605;28;20040;-60
2021/03/05 11:04:02;;;;;;;12.45;3.67;;;;;;;;;;5032434;28;20045;-60
2021/03/05 11:06:28;;;;;;;11.38;3.40;;;;;;;;;;5030247;28;20047;-60
2021/03/05 11:08:54;;;;;;;8.70;3.20;;;;;;;;;;5032925;28;20045;-60
2021/03/05 11:11:20;;;;;;;8.15;3.33;;;;;;;;;;5033392;28;20029;-60
2021/03/05 11:13:47;;;;;;;9.07;3.50;;;;;;;;;;5033133;28;20036;-60
2021/03/05 11:16:12;;;;;;;7.25;3.03;;;;;;;;;;5031844;28;20052;-60
2021/03/05 11:18:38;;;;;;;9.85;3.30;;;;;;;;;;5029389;28;20089;-60
2021/03/05 11:21:04;;;;;;;11.15;3.15;;;;;;;;;;5031518;28;20040;-59
2021/03/05 11:23:30;;;;;;;6.82;2.97;;;;;;;;;;5030379;28;20776;-59
2021/03/05 11:25:56;;;;;;;9.95;3.30;;;;;;;;;;5032669;28;20037;-60
2021/03/05 11:28:22;;;;;;;11.45;4.25;;;;;;;;;;5031677;28;20056;-60
2021/03/05 11:30:48;;;;;;;8.68;3.20;;;;;;;;;;5031372;28;20048;-59
2021/03/05 11:33:14;;;;;;;9.63;3.60;;;;;;;;;;5029523;28;20044;-60
2021/03/05 11:35:41;;;;;;;10.02;3.58;;;;;;;;;;5030368;28;20079;-60
2021/03/05 11:38:06;;;;;;;7.40;3.28;;;;;;;;;;5031202;28;20056;-60
2021/03/05 11:40:32;;;;;;;8.95;3.33;;;;;;;;;;5029556;28;20101;-59
2021/03/05 11:42:58;;;;;;;9.45;3.50;;;;;;;;;;5032045;28;20056;-59
2021/03/05 11:45:24;;;;;;;8.95;3.47;;;;;;;;;;5031848;28;20493;-60
2021/03/05 11:47:50;;;;;;;12.32;3.80;;;;;;;;;;5030059;28;20082;-59
2021/03/05 11:50:16;;;;;;;8.32;3.28;;;;;;;;;;5030106;28;20056;-59
2021/03/05 11:52:42;;;;;;;7.32;2.45;;;;;;;;;;5031159;28;20071;-59
2021/03/05 11:55:08;;;;;;;6.38;2.60;;;;;;;;;;5030054;28;20083;-59
2021/03/05 11:57:34;;;;;;;5.45;2.22;;;;;;;;;;5043083;28;20069;-59
2021/03/05 12:00:00;;;;;;;9.63;2.90;;;;;;;;;;5029536;28;20147;-59
2021/03/05 12:02:26;;;;;;;7.10;2.40;;;;;;;;;;5029034;28;20041;-59
2021/03/05 12:04:51;;;;;;;7.00;2.67;;;;;;;;;;5032728;28;20051;-59
2021/03/05 12:07:17;;;;;;;10.02;2.83;;;;;;;;;;5030061;28;20040;-59
2021/03/05 12:09:43;;;;;;;9.85;3.00;;;;;;;;;;5028785;28;20517;-60
2021/03/05 12:12:11;;;;;;;9.00;2.80;;;;;;;;;;5030807;28;20044;-59
2021/03/05 12:14:37;;;;;;;5.90;2.80;;;;;;;;;;5029665;28;20049;-59
2021/03/05 12:17:02;;;;;;;9.02;2.80;;;;;;;;;;5029171;28;20993;-60
2021/03/05 12:19:28;;;;;;;6.60;2.88;;;;;;;;;;5028713;28;20045;-59
2021/03/05 12:21:54;;;;;;;11.82;3.20;;;;;;;;;;5029786;28;20072;-60
2021/03/05 12:24:20;;;;;;;10.73;2.85;;;;;;;;;;5028147;28;20139;-60
2021/03/05 12:26:46;;;;;;;7.13;2.97;;;;;;;;;;5029028;28;20083;-58
2021/03/05 12:29:12;;;;;;;5.95;2.60;;;;;;;;;;5030143;28;20087;-59
2021/03/05 12:31:38;;;;;;;6.68;2.70;;;;;;;;;;5028509;28;20037;-58
2021/03/05 12:34:04;;;;;;;8.57;2.90;;;;;;;;;;5031353;28;22076;-58
2021/03/05 12:36:30;;;;;;;6.20;2.60;;;;;;;;;;5028203;28;20144;-60
2021/03/05 12:38:56;;;;;;;7.68;2.58;;;;;;;;;;5031543;28;20521;-59
2021/03/05 12:41:22;;;;;;;8.80;2.50;;;;;;;;;;5032400;28;20103;-59
2021/03/05 12:43:48;;;;;;;8.15;2.58;;;;;;;;;;5032186;28;20033;-60
2021/03/05 12:46:14;;;;;;;9.10;2.17;;;;;;;;;;5031451;28;20496;-60
2021/03/05 12:48:40;;;;;;;5.15;2.20;;;;;;;;;;5006100;28;20508;-60
2021/03/05 12:51:06;;;;;;;7.43;2.83;;;;;;;;;;5031926;28;20099;-59
2021/03/05 12:53:31;;;;;;;9.82;3.80;;;;;;;;;;5030664;28;20836;-60
2021/03/05 12:55:57;;;;;;;7.35;2.60;;;;;;;;;;5031260;28;20135;-60
2021/03/05 12:58:23;;;;;;;8.27;2.97;;;;;;;;;;5031519;28;20041;-59
2021/03/05 13:00:49;;;;;;;8.18;2.80;;;;;;;;;;5033443;28;20060;-60
2021/03/05 13:03:15;;;;;;;8.77;2.90;;;;;;;;;;5031700;28;20098;-59
2021/03/05 13:05:41;;;;;;;6.63;2.75;;;;;;;;;;5028755;28;20072;-59
2021/03/05 13:08:07;;;;;;;13.57;2.72;;;;;;;;;;5029959;28;20033;-60
2021/03/05 13:10:33;;;;;;;9.10;2.85;;;;;;;;;;5029072;28;20041;-59
2021/03/05 13:12:59;;;;;;;9.48;3.08;;;;;;;;;;5029492;28;20193;-59
2021/03/05 13:15:25;;;;;;;9.55;2.95;;;;;;;;;;5030070;28;20059;-59
2021/03/05 13:17:51;;;;;;;9.52;2.70;;;;;;;;;;5031551;28;20056;-59
2021/03/05 13:20:17;;;;;;;10.88;4.28;;;;;;;;;;5029705;28;20056;-58
2021/03/05 13:22:42;;;;;;;9.90;2.88;;;;;;;;;;5029756;28;20095;-59
2021/03/05 13:25:10;;;;;;;17.95;3.53;;;;;;;;;;5032252;28;20053;-59
2021/03/05 13:27:36;;;;;;;7.85;2.85;;;;;;;;;;5029186;28;20040;-59
2021/03/05 13:30:02;;;;;;;9.52;2.80;;;;;;;;;;5030200;28;20049;-56
2021/03/05 13:32:28;;;;;;;20.00;6.68;;;;;;;;;;5029780;28;20506;-58
2021/03/05 13:34:54;;;;;;;11.15;4.47;;;;;;;;;;5029205;28;20053;-57
2021/03/05 13:37:23;;;;;;;15.93;3.40;;;;;;;;;;5029004;28;20132;-56
2021/03/05 13:39:49;;;;;;;21.20;3.65;;;;;;;;;;5030140;28;20052;-59
2021/03/05 13:42:15;;;;;;;9.82;3.38;;;;;;;;;;5030454;28;20095;-59
2021/03/05 13:44:41;;;;;;;10.70;2.88;;;;;;;;;;5031622;28;20521;-59
2021/03/05 13:47:07;;;;;;;7.50;2.55;;;;;;;;;;5029478;28;20049;-58
2021/03/05 13:49:33;;;;;;;11.65;2.78;;;;;;;;;;5031608;28;20053;-59
2021/03/05 13:51:59;;;;;;;8.80;3.05;;;;;;;;;;5026010;28;20705;-58
2021/03/05 13:54:25;;;;;;;9.23;2.72;;;;;;;;;;5024821;28;20075;-59
2021/03/05 13:56:51;;;;;;;7.60;2.88;;;;;;;;;;5018753;28;20069;-59
2021/03/05 13:59:17;;;;;;;8.63;2.90;;;;;;;;;;5027016;28;20041;-58
2021/03/05 14:01:43;;;;;;;8.98;2.90;;;;;;;;;;5020140;28;20044;-58
2021/03/05 14:04:09;;;;;;;10.23;3.05;;;;;;;;;;5027711;28;20573;-58
2021/03/05 14:06:34;;;;;;;13.20;3.10;;;;;;;;;;5025365;28;20120;-59
2021/03/05 14:09:01;;;;;;;15.07;3.50;;;;;;;;;;5028112;28;20040;-58
2021/03/05 14:11:26;;;;;;;11.95;3.67;;;;;;;;;;5024814;28;20033;-57
2021/03/05 14:13:52;;;;;;;13.30;3.45;;;;;;;;;;5025823;28;20045;-58
2021/03/05 14:16:19;;;;;;;16.17;3.40;;;;;;;;;;5020618;28;20049;-60
2021/03/05 14:18:48;;;;;;;12.02;3.08;;;;;;;;;;5021497;28;20137;-59
2021/03/05 14:21:14;;;;;;;11.05;3.10;;;;;;;;;;5025105;28;20033;-58
2021/03/05 14:23:40;;;;;;;10.18;2.92;;;;;;;;;;5027427;28;20623;-59
2021/03/05 14:26:06;;;;;;;13.35;3.42;;;;;;;;;;5030710;28;20033;-58
2021/03/05 14:28:32;;;;;;;23.30;3.13;;;;;;;;;;5028234;28;20102;-59
2021/03/05 14:30:58;;;;;;;17.80;3.30;;;;;;;;;;5030277;28;20371;-59
2021/03/05 14:33:24;;;;;;;11.10;2.65;;;;;;;;;;5030420;28;20044;-59
2021/03/05 14:35:53;;;;;;;11.30;2.90;;;;;;;;;;5029200;28;20485;-61
2021/03/05 14:38:18;;;;;;;15.27;2.90;;;;;;;;;;5027236;28;20685;-58
2021/03/05 14:40:44;;;;;;;10.68;2.78;;;;;;;;;;5029578;28;20137;-59